createdAt,value
2023-01-31T00:01:36.372Z,14.07
2023-01-31T00:04:09.879Z,12.87
2023-01-31T00:06:42.596Z,16.67
2023-01-31T00:09:11.010Z,16.57
2023-01-31T00:11:38.608Z,11.47
2023-01-31T00:14:07.775Z,12.33
2023-01-31T00:16:35.097Z,14.30
2023-01-31T00:19:02.702Z,14.80
2023-01-31T00:21:30.987Z,12.40
2023-01-31T00:24:00.017Z,12.70
2023-01-31T00:26:33.043Z,13.43
2023-01-31T00:29:04.496Z,12.27
2023-01-31T00:31:33.726Z,12.90
2023-01-31T00:34:01.138Z,13.97
2023-01-31T00:36:30.719Z,12.67
2023-01-31T00:39:00.068Z,16.07
2023-01-31T00:41:29.130Z,15.03
2023-01-31T00:43:56.189Z,10.87
2023-01-31T00:46:23.903Z,14.00
2023-01-31T00:48:51.518Z,14.37
2023-01-31T00:51:19.917Z,11.43
2023-01-31T00:53:47.230Z,14.97
2023-01-31T00:56:22.874Z,11.77
2023-01-31T00:58:50.543Z,16.93
2023-01-31T01:01:23.645Z,9.90
2023-01-31T01:04:08.920Z,12.53
2023-01-31T01:06:38.330Z,12.10
2023-01-31T01:09:05.122Z,13.57
2023-01-31T01:11:33.467Z,10.93
2023-01-31T01:14:02.706Z,11.87
2023-01-31T01:16:36.818Z,12.00
2023-01-31T01:19:12.170Z,17.03
2023-01-31T01:21:41.842Z,11.77
2023-01-31T01:24:14.319Z,11.67
2023-01-31T01:26:41.359Z,12.13
2023-01-31T01:29:08.446Z,14.60
2023-01-31T01:31:35.887Z,13.93
2023-01-31T01:34:07.003Z,15.67
2023-01-31T01:36:35.961Z,10.10
2023-01-31T01:39:05.168Z,12.63
2023-01-31T01:41:36.168Z,11.90
2023-01-31T01:44:45.250Z,11.57
2023-01-31T01:47:35.053Z,15.40
2023-01-31T01:50:07.706Z,11.50
2023-01-31T01:52:39.464Z,14.13
2023-01-31T01:55:19.137Z,11.30
2023-01-31T01:57:49.701Z,12.77
2023-01-31T02:00:29.999Z,13.47
2023-01-31T02:02:59.507Z,13.23
2023-01-31T02:05:33.222Z,12.93
2023-01-31T02:08:02.243Z,16.30
2023-01-31T02:10:55.890Z,15.13
2023-01-31T02:13:23.362Z,13.17
2023-01-31T02:15:50.356Z,11.67
2023-01-31T02:18:20.745Z,11.40
2023-01-31T02:21:15.705Z,14.10
2023-01-31T02:24:04.098Z,14.40
2023-01-31T02:26:57.951Z,12.83
2023-01-31T02:30:02.584Z,13.00
2023-01-31T02:32:32.171Z,14.70
2023-01-31T02:35:29.749Z,10.60
2023-01-31T02:38:24.331Z,11.43
2023-01-31T02:41:26.351Z,11.93
2023-01-31T02:44:43.100Z,13.63
2023-01-31T02:47:32.432Z,16.00
2023-01-31T02:50:11.974Z,14.07
2023-01-31T02:52:58.178Z,13.40
2023-01-31T02:56:03.059Z,9.60
2023-01-31T02:58:34.761Z,13.77
2023-01-31T03:01:04.205Z,12.67
2023-01-31T03:03:35.860Z,11.77
2023-01-31T03:06:23.265Z,12.80
2023-01-31T03:09:07.365Z,14.57
2023-01-31T03:11:55.030Z,12.10
2023-01-31T03:14:46.494Z,15.83
2023-01-31T03:17:33.088Z,11.23
2023-01-31T03:20:10.614Z,13.23
2023-01-31T03:22:51.714Z,13.50
2023-01-31T03:25:22.107Z,14.97
2023-01-31T03:27:56.252Z,12.10
2023-01-31T03:30:39.889Z,14.57
2023-01-31T03:33:47.942Z,15.03
2023-01-31T03:36:23.499Z,17.60
2023-01-31T03:39:29.047Z,13.07
2023-01-31T03:42:19.286Z,15.80
2023-01-31T03:45:09.671Z,8.37
2023-01-31T03:47:43.385Z,8.97
2023-01-31T03:50:16.490Z,11.77
2023-01-31T03:53:09.555Z,19.30
2023-01-31T03:55:43.595Z,14.37
2023-01-31T03:58:13.179Z,10.13
2023-01-31T04:00:43.313Z,14.37
2023-01-31T04:03:35.503Z,15.67
2023-01-31T04:06:03.607Z,13.73
2023-01-31T04:08:32.606Z,13.30
2023-01-31T04:11:00.452Z,13.73
2023-01-31T04:13:27.455Z,13.33
2023-01-31T04:15:54.362Z,13.03
2023-01-31T04:18:21.226Z,11.37
2023-01-31T04:20:48.013Z,13.07
2023-01-31T04:23:14.823Z,10.87
2023-01-31T04:25:41.642Z,16.67
2023-01-31T04:28:12.987Z,11.40
2023-01-31T04:30:40.110Z,12.00
2023-01-31T04:33:07.073Z,14.17
2023-01-31T04:35:35.000Z,12.30
2023-01-31T04:38:01.977Z,15.63
2023-01-31T04:40:28.835Z,12.20
2023-01-31T04:42:55.673Z,9.63
2023-01-31T04:45:22.665Z,16.47
2023-01-31T04:47:49.628Z,14.03
2023-01-31T04:50:16.820Z,15.60
2023-01-31T04:52:43.631Z,13.03
2023-01-31T04:55:10.601Z,14.03
2023-01-31T04:57:37.546Z,14.03
2023-01-31T05:00:05.374Z,13.33
2023-01-31T05:02:32.395Z,13.93
2023-01-31T05:04:59.211Z,17.30
2023-01-31T05:07:26.111Z,14.10
2023-01-31T05:09:52.972Z,13.57
2023-01-31T05:12:19.815Z,14.07
2023-01-31T05:14:46.860Z,13.50
2023-01-31T05:17:14.155Z,21.80
2023-01-31T05:19:43.531Z,12.70
2023-01-31T05:22:10.491Z,15.40
2023-01-31T05:24:37.367Z,12.87
2023-01-31T05:27:08.278Z,13.17
2023-01-31T05:29:35.584Z,15.13
2023-01-31T05:32:04.230Z,13.20
2023-01-31T05:34:33.271Z,10.30
2023-01-31T05:37:03.802Z,12.37
2023-01-31T05:39:31.358Z,16.73
2023-01-31T05:41:58.223Z,13.50
2023-01-31T05:44:25.109Z,14.20
2023-01-31T05:46:51.967Z,10.90
2023-01-31T05:49:18.836Z,12.53
2023-01-31T05:51:45.597Z,8.77
2023-01-31T05:54:12.681Z,10.17
2023-01-31T05:56:39.847Z,13.40
2023-01-31T05:59:06.720Z,13.10
2023-01-31T06:01:33.734Z,14.73
2023-01-31T06:04:03.683Z,16.03
2023-01-31T06:06:30.854Z,10.30
2023-01-31T06:08:57.707Z,12.17
2023-01-31T06:11:25.399Z,16.40
2023-01-31T06:13:52.307Z,11.57
2023-01-31T06:16:19.180Z,12.07
2023-01-31T06:18:45.977Z,10.50
2023-01-31T06:21:12.907Z,10.93
2023-01-31T06:23:40.387Z,11.90
2023-01-31T06:26:07.224Z,13.60
2023-01-31T06:28:34.104Z,8.80
2023-01-31T06:31:09.964Z,11.23
2023-01-31T06:33:46.185Z,15.83
2023-01-31T06:36:18.383Z,11.90
2023-01-31T06:38:49.811Z,13.43
2023-01-31T06:41:16.723Z,13.47
2023-01-31T06:43:43.528Z,17.87
2023-01-31T06:46:10.450Z,15.40
2023-01-31T06:48:37.606Z,17.57
2023-01-31T06:51:06.034Z,10.77
2023-01-31T06:53:35.838Z,12.10
2023-01-31T06:56:02.629Z,14.47
2023-01-31T06:58:34.189Z,12.47
2023-01-31T07:01:09.996Z,15.63
2023-01-31T07:03:37.134Z,12.03
2023-01-31T07:06:05.373Z,10.37
2023-01-31T07:08:35.362Z,11.47
2023-01-31T07:11:04.031Z,11.97
2023-01-31T07:13:31.443Z,15.63
2023-01-31T07:15:58.478Z,11.90
2023-01-31T07:18:25.343Z,15.90
2023-01-31T07:20:53.349Z,8.67
2023-01-31T07:23:20.389Z,10.87
2023-01-31T07:25:47.226Z,11.83
2023-01-31T07:28:14.201Z,12.23
2023-01-31T07:30:43.820Z,10.90
2023-01-31T07:33:14.875Z,13.60
2023-01-31T07:35:44.701Z,16.23
2023-01-31T07:38:44.016Z,14.17
2023-01-31T07:41:11.507Z,13.43
2023-01-31T07:43:38.922Z,14.23
2023-01-31T07:46:10.520Z,12.43
2023-01-31T07:48:37.971Z,13.80
2023-01-31T07:51:05.466Z,15.20
2023-01-31T07:53:42.211Z,13.00
2023-01-31T07:56:17.506Z,14.13
2023-01-31T07:58:46.042Z,9.00
2023-01-31T08:01:56.675Z,10.50
2023-01-31T08:04:23.541Z,10.70
2023-01-31T08:07:03.237Z,10.67
2023-01-31T08:09:33.725Z,11.47
2023-01-31T08:12:00.547Z,7.73
2023-01-31T08:14:29.318Z,9.27
2023-01-31T08:16:56.638Z,11.93
2023-01-31T08:19:24.423Z,8.27
2023-01-31T08:21:51.248Z,10.07
2023-01-31T08:24:19.238Z,9.30
2023-01-31T08:26:46.764Z,12.83
2023-01-31T08:29:13.719Z,11.63
2023-01-31T08:31:42.013Z,12.30
2023-01-31T08:34:09.090Z,10.00
2023-01-31T08:36:36.703Z,8.57
2023-01-31T08:39:07.135Z,11.73
2023-01-31T08:41:35.114Z,13.43
2023-01-31T08:44:04.824Z,10.93
2023-01-31T08:46:37.056Z,10.90
2023-01-31T08:49:06.657Z,12.13
2023-01-31T08:51:33.564Z,8.63
2023-01-31T08:54:00.367Z,11.37
2023-01-31T08:56:28.122Z,12.60
2023-01-31T08:58:55.821Z,18.27
2023-01-31T09:01:22.887Z,11.13
2023-01-31T09:03:50.747Z,12.20
2023-01-31T09:06:20.195Z,12.80
2023-01-31T09:08:47.551Z,10.37
2023-01-31T09:11:19.704Z,12.53
2023-01-31T09:13:51.492Z,9.70
2023-01-31T09:16:19.747Z,9.27
2023-01-31T09:18:47.320Z,11.67
2023-01-31T09:21:20.061Z,9.67
2023-01-31T09:23:48.386Z,8.70
2023-01-31T09:26:16.524Z,9.43
2023-01-31T09:28:43.738Z,7.07
2023-01-31T09:31:14.072Z,11.80
2023-01-31T09:33:41.308Z,12.20
2023-01-31T09:36:17.134Z,9.63
2023-01-31T09:38:44.315Z,10.67
2023-01-31T09:41:23.903Z,9.30
2023-01-31T09:44:25.746Z,10.47
2023-01-31T09:46:58.973Z,8.00
2023-01-31T09:49:38.045Z,14.07
2023-01-31T09:52:04.918Z,12.73
2023-01-31T09:54:39.171Z,13.00
2023-01-31T09:57:40.817Z,14.13
2023-01-31T10:00:25.914Z,11.23
2023-01-31T10:03:43.134Z,13.33
2023-01-31T10:06:23.802Z,15.93
2023-01-31T10:09:20.094Z,12.13
2023-01-31T10:11:56.988Z,12.23
2023-01-31T10:14:47.937Z,14.37
2023-01-31T10:17:29.286Z,14.80
2023-01-31T10:20:18.945Z,11.37
2023-01-31T10:23:14.321Z,9.87
2023-01-31T10:25:54.216Z,10.17
2023-01-31T10:28:27.763Z,12.30
2023-01-31T10:31:34.133Z,9.40
2023-01-31T10:34:01.029Z,5.07
2023-01-31T10:36:59.911Z,10.03
2023-01-31T10:39:31.928Z,18.00
2023-01-31T10:42:02.034Z,7.87
2023-01-31T10:44:46.390Z,11.80
2023-01-31T10:47:17.429Z,11.33
2023-01-31T10:49:47.454Z,9.00
2023-01-31T10:52:34.794Z,8.77
2023-01-31T10:55:12.995Z,9.37
2023-01-31T10:57:39.867Z,9.07
2023-01-31T11:00:09.930Z,8.57
2023-01-31T11:02:36.862Z,10.37
2023-01-31T11:05:04.221Z,10.10
2023-01-31T11:07:31.885Z,7.97
2023-01-31T11:09:58.804Z,8.67
2023-01-31T11:12:51.647Z,9.70
2023-01-31T11:15:20.343Z,10.07
2023-01-31T11:17:47.998Z,9.77
2023-01-31T11:20:37.520Z,7.17
2023-01-31T11:23:06.855Z,7.43
2023-01-31T11:25:34.890Z,7.97
2023-01-31T11:28:05.561Z,11.53
2023-01-31T11:30:38.455Z,8.03
2023-01-31T11:33:05.527Z,8.77
2023-01-31T11:35:34.530Z,9.97
2023-01-31T11:38:20.327Z,8.97
2023-01-31T11:40:47.181Z,9.03
2023-01-31T11:43:16.967Z,6.67
2023-01-31T11:45:47.517Z,6.40
2023-01-31T11:48:22.361Z,7.27
2023-01-31T11:50:58.797Z,10.30
2023-01-31T11:53:32.206Z,12.67
2023-01-31T11:56:13.410Z,11.03
2023-01-31T11:58:42.053Z,10.47
2023-01-31T12:01:22.775Z,11.60
2023-01-31T12:04:04.236Z,8.17
2023-01-31T12:06:36.872Z,13.33
2023-01-31T12:09:25.053Z,8.17
2023-01-31T12:12:05.334Z,9.33
2023-01-31T12:14:39.645Z,9.00
2023-01-31T12:17:15.154Z,6.30
2023-01-31T12:20:14.258Z,10.20
2023-01-31T12:23:16.819Z,9.00
2023-01-31T12:25:54.707Z,9.97
2023-01-31T12:28:59.875Z,9.13
2023-01-31T12:31:39.625Z,11.37
2023-01-31T12:34:19.268Z,9.20
2023-01-31T12:37:18.030Z,8.53
2023-01-31T12:39:50.795Z,10.00
2023-01-31T12:42:46.770Z,9.90
2023-01-31T12:45:38.425Z,7.67
2023-01-31T12:48:33.443Z,8.67
2023-01-31T12:51:31.299Z,6.83
2023-01-31T12:54:10.467Z,9.07
2023-01-31T12:56:59.605Z,7.57
2023-01-31T12:59:32.642Z,7.90
2023-01-31T13:02:08.529Z,9.97
2023-01-31T13:04:44.571Z,8.63
2023-01-31T13:07:46.036Z,7.63
2023-01-31T13:10:38.079Z,7.83
2023-01-31T13:13:10.271Z,7.13
2023-01-31T13:15:47.380Z,7.63
2023-01-31T13:18:15.614Z,9.10
2023-01-31T13:20:57.936Z,8.23
2023-01-31T13:23:36.325Z,5.87
2023-01-31T13:26:23.235Z,9.10
2023-01-31T13:29:14.170Z,10.10
2023-01-31T13:32:06.771Z,8.93
2023-01-31T13:34:59.152Z,7.00
2023-01-31T13:37:30.345Z,5.30
2023-01-31T13:40:22.685Z,7.73
2023-01-31T13:42:54.276Z,4.10
2023-01-31T13:45:48.462Z,6.70
2023-01-31T13:48:53.008Z,7.50
2023-01-31T13:51:46.622Z,8.80
2023-01-31T13:54:31.366Z,8.10
2023-01-31T13:57:00.931Z,6.97
2023-01-31T13:59:31.729Z,9.17
2023-01-31T14:02:05.002Z,8.80
2023-01-31T14:04:39.816Z,8.20
2023-01-31T14:07:07.140Z,8.23
2023-01-31T14:09:42.461Z,8.33
2023-01-31T14:12:18.010Z,10.43
2023-01-31T14:14:52.661Z,13.93
2023-01-31T14:17:28.330Z,7.27
2023-01-31T14:19:56.799Z,7.87
2023-01-31T14:22:41.342Z,13.93
2023-01-31T14:25:11.264Z,9.27
2023-01-31T14:27:40.111Z,12.83
2023-01-31T14:30:07.980Z,9.87
2023-01-31T14:32:50.176Z,9.17
2023-01-31T14:35:16.958Z,10.00
2023-01-31T14:38:18.617Z,8.17
2023-01-31T14:41:16.586Z,11.03
2023-01-31T14:43:43.331Z,8.77
2023-01-31T14:46:16.051Z,7.80
2023-01-31T14:49:03.976Z,10.23
2023-01-31T14:51:59.614Z,9.07
2023-01-31T14:54:57.594Z,14.70
2023-01-31T14:57:29.407Z,10.90
2023-01-31T15:00:18.726Z,8.90
2023-01-31T15:03:10.276Z,10.97
2023-01-31T15:05:37.538Z,10.63
2023-01-31T15:08:13.565Z,14.00
2023-01-31T15:11:41.549Z,12.03
2023-01-31T15:14:34.692Z,12.50
2023-01-31T15:17:35.602Z,11.87
2023-01-31T15:20:12.507Z,10.23
2023-01-31T15:22:41.588Z,10.43
2023-01-31T15:25:25.067Z,16.43
2023-01-31T15:27:55.083Z,10.93
2023-01-31T15:30:23.385Z,10.30
2023-01-31T15:33:08.790Z,10.03
2023-01-31T15:35:49.771Z,14.30
2023-01-31T15:38:22.027Z,12.53
2023-01-31T15:41:11.003Z,13.47
2023-01-31T15:43:39.597Z,16.00
2023-01-31T15:46:14.919Z,11.97
2023-01-31T15:48:43.838Z,13.10
2023-01-31T15:51:13.980Z,13.83
2023-01-31T15:53:43.028Z,12.63
2023-01-31T15:56:23.858Z,11.63
2023-01-31T15:58:54.315Z,11.47
2023-01-31T16:01:21.393Z,14.17
2023-01-31T16:03:57.262Z,10.10
2023-01-31T16:06:27.010Z,12.07
2023-01-31T16:09:02.269Z,14.43
2023-01-31T16:11:33.453Z,19.40
2023-01-31T16:14:03.751Z,14.13
2023-01-31T16:16:33.750Z,14.20
2023-01-31T16:19:01.848Z,11.40
2023-01-31T16:21:39.546Z,12.63
2023-01-31T16:24:16.622Z,13.87
2023-01-31T16:27:06.679Z,13.03
2023-01-31T16:29:46.793Z,11.27
2023-01-31T16:32:21.330Z,13.37
2023-01-31T16:35:07.242Z,13.00
2023-01-31T16:37:34.096Z,22.77
2023-01-31T16:40:05.599Z,12.90
2023-01-31T16:42:35.308Z,15.30
2023-01-31T16:45:03.167Z,14.17
2023-01-31T16:47:51.000Z,12.40
2023-01-31T16:50:17.865Z,13.90
2023-01-31T16:52:46.207Z,13.13
2023-01-31T16:55:15.660Z,15.10
2023-01-31T16:57:42.527Z,12.27
2023-01-31T17:00:31.425Z,13.40
2023-01-31T17:03:00.242Z,13.83
2023-01-31T17:05:35.986Z,15.90
2023-01-31T17:08:04.079Z,12.77
2023-01-31T17:10:34.150Z,15.60
2023-01-31T17:13:09.827Z,14.30
2023-01-31T17:15:36.711Z,14.70
2023-01-31T17:18:03.598Z,12.90
2023-01-31T17:20:30.467Z,13.43
2023-01-31T17:23:03.021Z,13.57
2023-01-31T17:25:34.025Z,13.63
2023-01-31T17:28:01.086Z,14.43
2023-01-31T17:30:30.468Z,19.40
2023-01-31T17:32:58.689Z,15.33
2023-01-31T17:35:43.554Z,14.20
2023-01-31T17:38:11.113Z,18.10
2023-01-31T17:40:40.305Z,14.43
2023-01-31T17:43:08.023Z,15.13
2023-01-31T17:45:35.325Z,16.47
2023-01-31T17:48:02.145Z,14.90
2023-01-31T17:50:29.275Z,19.67
2023-01-31T17:52:56.593Z,18.13
2023-01-31T17:55:25.621Z,14.93
2023-01-31T17:57:52.817Z,17.43
2023-01-31T18:00:21.106Z,19.33
2023-01-31T18:02:48.029Z,17.50
2023-01-31T18:05:20.179Z,14.73
2023-01-31T18:07:49.800Z,18.97
2023-01-31T18:10:17.325Z,18.77
2023-01-31T18:12:44.921Z,17.50
2023-01-31T18:15:12.267Z,17.30
2023-01-31T18:17:39.047Z,13.60
2023-01-31T18:20:06.667Z,13.60
2023-01-31T18:22:33.738Z,19.80
2023-01-31T18:25:00.586Z,15.90
2023-01-31T18:27:27.499Z,15.20
2023-01-31T18:29:55.711Z,15.53
2023-01-31T18:32:22.603Z,16.77
2023-01-31T18:34:49.448Z,15.87
2023-01-31T18:37:20.269Z,21.90
2023-01-31T18:39:52.108Z,15.80
2023-01-31T18:42:20.269Z,16.60
2023-01-31T18:44:47.384Z,17.20
2023-01-31T18:47:15.623Z,17.03
2023-01-31T18:49:42.955Z,20.03
2023-01-31T18:52:10.519Z,19.40
2023-01-31T18:54:37.991Z,24.80
2023-01-31T18:57:05.426Z,21.33
2023-01-31T18:59:34.712Z,19.50
2023-01-31T19:02:05.796Z,18.27
2023-01-31T19:04:32.869Z,16.53
2023-01-31T19:06:59.653Z,20.67
2023-01-31T19:09:26.498Z,18.83
2023-01-31T19:11:53.403Z,20.33
2023-01-31T19:14:20.385Z,19.53
2023-01-31T19:16:49.298Z,19.47
2023-01-31T19:19:16.420Z,23.23
2023-01-31T19:21:43.375Z,22.37
2023-01-31T19:24:14.281Z,20.80
2023-01-31T19:26:42.232Z,19.13
2023-01-31T19:29:13.729Z,19.67
2023-01-31T19:31:40.721Z,20.77
2023-01-31T19:34:07.881Z,14.60
2023-01-31T19:36:40.533Z,17.87
2023-01-31T19:39:10.551Z,20.67
2023-01-31T19:41:37.757Z,17.90
2023-01-31T19:44:04.900Z,16.93
2023-01-31T19:46:34.680Z,17.13
2023-01-31T19:49:01.936Z,18.30
2023-01-31T19:51:28.954Z,17.20
2023-01-31T19:54:04.264Z,15.77
2023-01-31T19:56:32.056Z,17.30
2023-01-31T19:59:00.054Z,15.53
2023-01-31T20:01:26.931Z,16.70
2023-01-31T20:03:54.661Z,16.37
2023-01-31T20:06:25.669Z,15.67
2023-01-31T20:08:58.571Z,15.40
2023-01-31T20:11:27.238Z,13.27
2023-01-31T20:13:55.348Z,13.77
2023-01-31T20:16:22.974Z,15.10
2023-01-31T20:18:51.373Z,17.90
2023-01-31T20:21:19.819Z,15.90
2023-01-31T20:23:46.829Z,15.67
2023-01-31T20:26:25.072Z,15.90
2023-01-31T20:28:52.226Z,14.93
2023-01-31T20:31:19.438Z,12.83
2023-01-31T20:33:46.388Z,15.50
2023-01-31T20:36:13.613Z,17.83
2023-01-31T20:38:40.569Z,17.33
2023-01-31T20:41:10.102Z,14.80
2023-01-31T20:43:37.558Z,15.30
2023-01-31T20:46:10.251Z,16.70
2023-01-31T20:48:37.754Z,17.70
2023-01-31T20:51:05.147Z,14.87
2023-01-31T20:53:32.840Z,15.47
2023-01-31T20:56:03.057Z,16.03
2023-01-31T20:58:32.312Z,15.87
2023-01-31T21:01:05.363Z,14.03
2023-01-31T21:03:33.564Z,13.50
2023-01-31T21:06:01.641Z,13.73
2023-01-31T21:08:29.315Z,13.40
2023-01-31T21:10:58.453Z,16.67
2023-01-31T21:13:31.546Z,14.63
2023-01-31T21:16:01.919Z,13.03
2023-01-31T21:18:30.536Z,11.80
2023-01-31T21:20:57.675Z,13.40
2023-01-31T21:23:25.317Z,13.37
2023-01-31T21:25:53.094Z,14.17
2023-01-31T21:28:20.115Z,12.67
2023-01-31T21:31:06.678Z,14.23
2023-01-31T21:33:33.625Z,13.80
2023-01-31T21:36:07.483Z,13.83
2023-01-31T21:38:34.449Z,14.43
2023-01-31T21:41:20.181Z,14.70
2023-01-31T21:43:48.132Z,12.87
2023-01-31T21:46:15.349Z,16.30
2023-01-31T21:48:42.776Z,14.73
2023-01-31T21:51:12.298Z,15.63
2023-01-31T21:53:40.057Z,14.10
2023-01-31T21:56:09.019Z,12.53
2023-01-31T21:58:37.804Z,12.30
2023-01-31T22:01:18.145Z,11.50
2023-01-31T22:03:48.710Z,13.10
2023-01-31T22:06:18.550Z,12.70
2023-01-31T22:08:45.761Z,11.23
2023-01-31T22:11:14.563Z,12.37
2023-01-31T22:13:45.314Z,11.63
2023-01-31T22:16:13.875Z,11.33
2023-01-31T22:18:42.117Z,10.60
2023-01-31T22:21:15.203Z,15.27
2023-01-31T22:23:46.367Z,12.50
2023-01-31T22:26:25.317Z,12.00
2023-01-31T22:28:54.260Z,12.90
2023-01-31T22:31:23.846Z,11.07
2023-01-31T22:33:51.357Z,12.80
2023-01-31T22:36:18.860Z,14.37
2023-01-31T22:38:46.576Z,12.37
2023-01-31T22:41:17.618Z,13.33
2023-01-31T22:43:48.185Z,15.70
2023-01-31T22:46:17.740Z,15.37
2023-01-31T22:48:44.711Z,12.90
2023-01-31T22:51:14.443Z,15.03
2023-01-31T22:53:42.197Z,15.97
2023-01-31T22:56:16.814Z,13.90
2023-01-31T22:58:43.845Z,13.47
2023-01-31T23:01:21.784Z,13.23
2023-01-31T23:03:49.236Z,12.50
2023-01-31T23:06:17.744Z,14.50
2023-01-31T23:08:44.754Z,11.43
2023-01-31T23:11:14.810Z,13.83
2023-01-31T23:13:42.293Z,15.53
2023-01-31T23:16:14.585Z,13.83
2023-01-31T23:18:41.736Z,17.57
2023-01-31T23:21:16.919Z,15.80
2023-01-31T23:23:44.944Z,16.73
2023-01-31T23:26:12.863Z,16.87
2023-01-31T23:28:40.159Z,17.60
2023-01-31T23:31:07.202Z,16.90
2023-01-31T23:33:34.173Z,17.30
2023-01-31T23:36:01.230Z,15.90
2023-01-31T23:38:28.070Z,16.90
2023-01-31T23:40:55.001Z,17.77
2023-01-31T23:43:22.927Z,16.07
2023-01-31T23:45:49.777Z,16.77
2023-01-31T23:48:16.891Z,16.90
2023-01-31T23:50:43.834Z,17.13
2023-01-31T23:53:10.772Z,14.47
2023-01-31T23:55:37.800Z,17.43
2023-01-31T23:58:04.758Z,16.00
